Terminal Aerodrome Forecast
Issued by NWS Cleveland, OH

Home | Current Version | Previous Version | Text Only | Print | Product List | Glossary Off
Versions: 1 2 3 4 5 6 7 8 9 10 11 12 13 14

000
FTUS41 KCLE 180540
TAFERI
TAF
KERI 180540Z 1806/1906 21010KT P6SM SCT015 BKN120
     FM181500 24012G22KT P6SM BKN050
     FM182100 26015G25KT P6SM SCT050
     FM190000 24008KT P6SM SCT120=

USA.gov is the U.S. government's official web portal to all federal, state and local government web resources and services.